首页
METAR-TAF:

METAR-TAF

机场 :

Albert J. Ellis Airport

傑克遜維爾, 北卡罗来纳州, 美国

纬度: 34-50N, 经度: 077-37W, 海拔: 29米

当前天气观测

该预报发布于31分钟前的16:56 UTC
风速9节,风向西转西南
温度 30°C
湿度 66%
气压 1015 hPa
能見度: 16.1公里
少量云层高于3200英尺

METAR: KOAJ 041656Z 24009KT 10SM FEW032 30/23 A2998 RMK AO2 SLP152 T03000228 PNO $

时间: 13:27 (17:27 UTC)

预报

该预报发布于6小时和6分钟前的11:21 UTC
预报有效从04日的 12点(UTC)到 05日的 12点(UTC)
风速13节,风向西南,有时为19节阵风
能見度: 10公里
阴天层高于1500英尺
从 04日的 1400点(UTC)
风速7节,风向西转西南
能見度: 10公里
散云层高于12000英尺

TAF: KOAJ 041121Z 0412/0512 23013G19KT P6SM OVC015 FM041400 24007KT P6SM SCT120 AMD LTD TO CLD VIS AND WIND

超过4000个机场的气象观测和天气预报(METAR&TAF报告)。

可查询的气象台以黄色和红色小点在地图上表示。

将鼠标移到小点上方,可查看气象台名称。

然后点击查看天气观测和预报。

如需切换地图:点击带黑十字的绿色按钮放大地图;点击带横线的绿色按钮缩小地图;或者点击绿色箭头查看邻近地区的地图。


METAR-TAF: